Terminal Aerodrome Forecast
Issued by NWS

Home | Current Version | Previous Version | Text Only | Print | Product List | Glossary On
Versions: 1 2 3 4 5 6 7 8 9 10 11 12 13 14 15 16 17 18 19 20 21 22 23 24 25 26 27 28 29 30 31 32 33
000
FTUS43 KDVN 290857 AAB
TAFCID
TAF AMD
KCID 290857Z 2909/3006 01008KT 6SM BR OVC006
      TEMPO 2910/2912 5SM BR
     FM291400 03009KT 6SM BR BKN012
     FM291600 06009KT P6SM BKN025
     FM300000 07012KT P6SM BKN040=

USA.gov is the U.S. government's official web portal to all federal, state and local government web resources and services.